createdAt,value
2018-11-28T00:00:15.575Z,59.30
2018-11-28T00:02:44.034Z,60.30
2018-11-28T00:05:13.098Z,60.50
2018-11-28T00:07:41.936Z,60.00
2018-11-28T00:10:11.922Z,60.40
2018-11-28T00:12:40.574Z,61.00
2018-11-28T00:15:14.119Z,61.00
2018-11-28T00:17:42.525Z,60.90
2018-11-28T00:20:13.950Z,61.60
2018-11-28T00:22:42.716Z,61.60
2018-11-28T00:25:12.007Z,61.50
2018-11-28T00:27:40.755Z,60.60
2018-11-28T00:30:14.178Z,60.50
2018-11-28T00:32:43.051Z,60.30
2018-11-28T00:35:14.381Z,60.20
2018-11-28T00:37:42.822Z,60.80
2018-11-28T00:40:13.118Z,60.30
2018-11-28T00:42:41.680Z,60.30
2018-11-28T00:45:12.451Z,60.30
2018-11-28T00:47:40.909Z,60.30
2018-11-28T00:50:11.131Z,60.50
2018-11-28T00:52:39.597Z,61.10
2018-11-28T00:55:14.460Z,60.60
2018-11-28T00:57:42.969Z,60.80
2018-11-28T01:00:14.793Z,60.00
2018-11-28T01:02:43.397Z,60.70
2018-11-28T01:05:12.545Z,60.10
2018-11-28T01:07:41.266Z,60.30
2018-11-28T01:10:13.021Z,59.90
2018-11-28T01:12:41.613Z,59.80
2018-11-28T01:15:12.067Z,59.80
2018-11-28T01:17:40.531Z,59.80
2018-11-28T01:20:11.403Z,59.70
2018-11-28T01:22:39.866Z,60.40
2018-11-28T01:25:09.841Z,59.70
2018-11-28T01:27:38.378Z,59.60
2018-11-28T01:30:09.852Z,59.60
2018-11-28T01:32:38.382Z,59.60
2018-11-28T01:35:08.646Z,59.60
2018-11-28T01:37:37.119Z,59.50
2018-11-28T01:40:07.913Z,59.60
2018-11-28T01:42:36.386Z,59.70
2018-11-28T01:45:04.978Z,60.10
2018-11-28T01:47:33.404Z,59.50
2018-11-28T01:50:01.828Z,59.60
2018-11-28T01:52:30.254Z,59.70
2018-11-28T01:54:58.634Z,59.70
2018-11-28T01:57:26.999Z,60.40
2018-11-28T01:59:55.369Z,60.00
2018-11-28T02:02:23.733Z,59.90
2018-11-28T02:04:52.142Z,59.80
2018-11-28T02:07:20.886Z,60.10
2018-11-28T02:09:49.439Z,59.70
2018-11-28T02:12:17.922Z,59.70
2018-11-28T02:14:46.372Z,59.70
2018-11-28T02:17:14.813Z,59.70
2018-11-28T02:19:43.412Z,60.20
2018-11-28T02:22:11.946Z,59.90
2018-11-28T02:24:40.390Z,59.80
2018-11-28T02:27:08.820Z,59.80
2018-11-28T02:29:37.206Z,60.00
2018-11-28T02:32:06.136Z,59.90
2018-11-28T02:34:34.454Z,60.00
2018-11-28T02:37:02.825Z,60.20
2018-11-28T02:39:31.164Z,59.90
2018-11-28T02:41:59.482Z,59.90
2018-11-28T02:44:27.829Z,60.50
2018-11-28T02:46:56.217Z,60.20
2018-11-28T02:49:24.620Z,60.20
2018-11-28T02:51:52.979Z,60.20
2018-11-28T02:54:21.376Z,60.70
2018-11-28T02:56:49.831Z,60.40
2018-11-28T02:59:18.215Z,60.30
2018-11-28T03:01:46.806Z,60.60
2018-11-28T03:04:15.361Z,60.60
2018-11-28T03:06:43.843Z,60.60
2018-11-28T03:09:12.364Z,60.80
2018-11-28T03:11:40.778Z,61.10
2018-11-28T03:14:09.134Z,61.00
2018-11-28T03:16:37.431Z,60.70
2018-11-28T03:19:05.798Z,61.50
2018-11-28T03:21:34.189Z,61.30
2018-11-28T03:24:02.586Z,60.60
2018-11-28T03:26:31.277Z,61.20
2018-11-28T03:28:59.568Z,60.50
2018-11-28T03:31:27.914Z,61.20
2018-11-28T03:33:56.312Z,60.70
2018-11-28T03:36:24.610Z,60.70
2018-11-28T03:38:52.976Z,60.70
2018-11-28T03:41:21.327Z,61.30
2018-11-28T03:43:49.970Z,61.00
2018-11-28T03:46:18.527Z,61.00
2018-11-28T03:48:47.050Z,61.00
2018-11-28T03:51:15.512Z,61.00
2018-11-28T03:53:43.945Z,60.90
2018-11-28T03:56:12.262Z,61.20
2018-11-28T03:58:40.773Z,61.20
2018-11-28T04:01:09.075Z,61.20
2018-11-28T04:03:37.390Z,61.20
2018-11-28T04:06:06.661Z,62.00
2018-11-28T04:08:34.967Z,61.30
2018-11-28T04:11:03.333Z,61.90
2018-11-28T04:13:31.670Z,62.20
2018-11-28T04:16:00.031Z,61.60
2018-11-28T04:18:28.315Z,61.60
2018-11-28T04:20:56.644Z,61.70
2018-11-28T04:23:25.021Z,62.60
2018-11-28T04:25:53.709Z,62.10
2018-11-28T04:28:22.320Z,62.20
2018-11-28T04:30:50.686Z,62.50
2018-11-28T04:33:19.084Z,62.70
2018-11-28T04:35:47.578Z,62.80
2018-11-28T04:38:16.201Z,62.80
2018-11-28T04:40:44.571Z,62.80
2018-11-28T04:43:12.903Z,62.70
2018-11-28T04:45:41.389Z,62.70
2018-11-28T04:48:09.714Z,62.90
2018-11-28T04:50:38.080Z,62.80
2018-11-28T04:53:06.819Z,62.70
2018-11-28T04:55:35.130Z,63.50
2018-11-28T04:58:03.650Z,62.80
2018-11-28T05:00:31.980Z,62.80
2018-11-28T05:03:00.305Z,62.80
2018-11-28T05:05:28.683Z,62.80
2018-11-28T05:07:57.210Z,62.80
2018-11-28T05:10:28.757Z,62.80
2018-11-28T05:12:57.873Z,62.80
2018-11-28T05:15:28.222Z,62.80
2018-11-28T05:17:56.668Z,62.90
2018-11-28T05:20:29.319Z,63.50
2018-11-28T05:22:57.979Z,63.60
2018-11-28T05:25:28.171Z,62.90
2018-11-28T05:30:37.097Z,63.40
2018-11-28T05:33:05.644Z,63.40
2018-11-28T05:35:35.426Z,62.70
2018-11-28T05:38:06.371Z,63.40
2018-11-28T05:40:34.849Z,62.70
2018-11-28T05:43:03.150Z,62.50
2018-11-28T05:45:31.531Z,62.40
2018-11-28T05:48:00.807Z,62.60
2018-11-28T05:50:29.248Z,63.00
2018-11-28T05:52:57.670Z,62.60
2018-11-28T05:55:26.111Z,62.80
2018-11-28T05:57:54.435Z,61.40
2018-11-28T06:00:36.307Z,61.20
2018-11-28T06:03:05.405Z,61.70
2018-11-28T06:05:33.756Z,60.90
2018-11-28T06:08:02.363Z,61.60
2018-11-28T06:10:30.950Z,60.90
2018-11-28T06:12:59.319Z,60.70
2018-11-28T06:15:27.798Z,60.80
2018-11-28T06:17:56.256Z,61.30
2018-11-28T06:20:24.709Z,61.40
2018-11-28T06:22:53.147Z,62.20
2018-11-28T06:25:21.703Z,61.40
2018-11-28T06:27:50.170Z,61.40
2018-11-28T06:30:20.111Z,61.50
2018-11-28T06:32:51.329Z,62.10
2018-11-28T06:35:17.050Z,62.60
2018-11-28T06:37:45.564Z,62.30
2018-11-28T06:40:15.038Z,61.40
2018-11-28T06:42:44.164Z,61.30
2018-11-28T06:45:14.712Z,61.20
2018-11-28T06:47:43.162Z,61.90
2018-11-28T06:50:13.878Z,61.20
2018-11-28T06:52:42.776Z,61.20
2018-11-28T06:55:13.470Z,61.50
2018-11-28T06:57:42.191Z,61.80
2018-11-28T07:00:14.868Z,61.30
2018-11-28T07:02:43.321Z,61.60
2018-11-28T07:05:12.450Z,61.70
2018-11-28T07:07:40.973Z,61.20
2018-11-28T07:10:12.757Z,61.40
2018-11-28T07:12:41.202Z,62.10
2018-11-28T07:15:12.156Z,61.40
2018-11-28T07:17:41.062Z,61.20
2018-11-28T07:20:14.551Z,61.70
2018-11-28T07:22:43.022Z,61.10
2018-11-28T07:25:17.242Z,61.00
2018-11-28T07:27:46.585Z,61.00
2018-11-28T07:30:18.683Z,61.20
2018-11-28T07:32:47.525Z,61.30
2018-11-28T07:35:15.895Z,61.50
2018-11-28T07:37:44.284Z,61.20
2018-11-28T07:40:14.007Z,61.10
2018-11-28T07:42:44.122Z,61.00
2018-11-28T07:45:12.963Z,61.80
2018-11-28T07:47:41.859Z,61.50
2018-11-28T07:50:10.927Z,61.10
2018-11-28T07:52:39.705Z,61.10
2018-11-28T07:55:10.384Z,60.80
2018-11-28T07:57:39.055Z,60.80
2018-11-28T08:00:12.027Z,60.80
2018-11-28T08:02:41.227Z,61.10
2018-11-28T08:05:11.410Z,60.60
2018-11-28T08:07:40.197Z,60.80
2018-11-28T08:10:18.510Z,61.20
2018-11-28T08:12:47.193Z,61.00
2018-11-28T08:15:16.884Z,61.90
2018-11-28T08:17:45.335Z,60.80
2018-11-28T08:20:14.018Z,61.20
2018-11-28T08:22:42.676Z,60.30
2018-11-28T08:25:13.338Z,60.10
2018-11-28T08:27:42.701Z,59.80
2018-11-28T08:30:16.791Z,60.00
2018-11-28T08:32:45.352Z,59.70
2018-11-28T08:35:14.358Z,60.10
2018-11-28T08:37:43.010Z,59.50
2018-11-28T08:40:13.568Z,59.40
2018-11-28T08:42:42.188Z,59.40
2018-11-28T08:45:13.282Z,58.70
2018-11-28T08:47:43.682Z,58.40
2018-11-28T08:50:20.222Z,58.60
2018-11-28T08:52:48.673Z,58.70
2018-11-28T08:55:18.111Z,58.50
2018-11-28T08:57:46.695Z,58.60
2018-11-28T09:00:21.214Z,58.90
2018-11-28T09:02:50.682Z,59.10
2018-11-28T09:05:19.042Z,59.40
2018-11-28T09:07:47.464Z,58.70
2018-11-28T09:10:17.926Z,58.30
2018-11-28T09:12:47.229Z,58.30
2018-11-28T09:15:20.325Z,58.20
2018-11-28T09:17:48.799Z,58.60
2018-11-28T09:20:17.363Z,58.50
2018-11-28T09:22:45.706Z,58.30
2018-11-28T09:25:15.397Z,58.40
2018-11-28T09:27:44.712Z,58.20
2018-11-28T09:30:15.377Z,58.60
2018-11-28T09:32:43.813Z,58.10
2018-11-28T09:35:13.062Z,58.10
2018-11-28T09:37:45.466Z,58.10
2018-11-28T09:40:15.187Z,58.40
2018-11-28T09:42:43.619Z,57.90
2018-11-28T09:45:14.177Z,57.80
2018-11-28T09:47:42.593Z,57.80
2018-11-28T09:50:17.015Z,57.70
2018-11-28T09:52:45.454Z,57.50
2018-11-28T09:55:16.292Z,57.50
2018-11-28T09:57:44.631Z,57.50
2018-11-28T10:00:20.494Z,57.40
2018-11-28T10:02:49.798Z,57.40
2018-11-28T10:05:20.346Z,57.20
2018-11-28T10:07:48.844Z,57.10
2018-11-28T10:10:17.255Z,56.70
2018-11-28T10:12:45.724Z,56.40
2018-11-28T10:15:19.219Z,56.30
2018-11-28T10:17:47.763Z,57.00
2018-11-28T10:20:16.687Z,56.10
2018-11-28T10:22:45.265Z,56.10
2018-11-28T10:25:15.742Z,56.00
2018-11-28T10:27:45.402Z,54.70
2018-11-28T10:30:19.271Z,54.60
2018-11-28T10:32:48.570Z,54.40
2018-11-28T10:35:17.241Z,54.30
2018-11-28T10:37:45.682Z,54.30
2018-11-28T10:40:18.274Z,53.90
2018-11-28T10:42:47.992Z,53.70
2018-11-28T10:45:17.760Z,53.70
2018-11-28T10:47:46.205Z,53.40
2018-11-28T10:50:15.529Z,53.20
2018-11-28T10:52:43.973Z,53.50
2018-11-28T10:55:14.693Z,53.60
2018-11-28T10:57:43.394Z,53.70
2018-11-28T11:00:26.140Z,53.40
2018-11-28T11:02:59.942Z,53.30
2018-11-28T11:05:33.790Z,53.70
2018-11-28T11:08:07.375Z,53.10
2018-11-28T11:10:44.440Z,52.90
2018-11-28T11:13:18.594Z,52.70
2018-11-28T11:15:52.424Z,53.00
2018-11-28T11:18:22.532Z,53.20
2018-11-28T11:20:52.962Z,53.30
2018-11-28T11:23:22.270Z,53.30
2018-11-28T11:25:53.694Z,53.20
2018-11-28T11:28:22.479Z,53.20
2018-11-28T11:30:50.922Z,53.10
2018-11-28T11:33:19.343Z,52.80
2018-11-28T11:35:47.821Z,52.50
2018-11-28T11:38:16.276Z,52.40
2018-11-28T11:40:44.633Z,52.20
2018-11-28T11:43:13.119Z,52.30
2018-11-28T11:45:41.555Z,51.90
2018-11-28T11:48:09.975Z,51.70
2018-11-28T11:50:38.333Z,51.60
2018-11-28T11:53:06.933Z,51.50
2018-11-28T11:55:36.411Z,51.30
2018-11-28T11:58:04.812Z,51.10
2018-11-28T12:00:33.179Z,50.90
2018-11-28T12:03:05.323Z,50.60
2018-11-28T12:05:33.713Z,50.30
2018-11-28T12:08:02.242Z,50.80
2018-11-28T12:10:30.654Z,50.80
2018-11-28T12:12:58.966Z,50.40
2018-11-28T12:15:27.292Z,50.20
2018-11-28T12:17:55.627Z,50.30
2018-11-28T12:20:42.338Z,50.40
2018-11-28T12:23:10.857Z,50.50
2018-11-28T12:25:39.212Z,50.50
2018-11-28T12:28:07.947Z,50.40
2018-11-28T12:30:36.557Z,50.50
2018-11-28T12:33:05.270Z,50.50
2018-11-28T12:35:33.739Z,50.50
2018-11-28T12:38:02.449Z,50.30
2018-11-28T12:40:31.903Z,50.40
2018-11-28T12:43:00.559Z,50.40
2018-11-28T12:45:29.113Z,50.50
2018-11-28T12:47:57.451Z,50.60
2018-11-28T12:50:26.840Z,50.50
2018-11-28T12:52:56.386Z,50.40
2018-11-28T12:55:25.239Z,50.60
2018-11-28T12:57:54.206Z,50.40
2018-11-28T13:00:24.743Z,50.40
2018-11-28T13:02:53.065Z,50.40
2018-11-28T13:05:22.585Z,50.30
2018-11-28T13:07:50.945Z,50.10
2018-11-28T13:10:23.657Z,50.10
2018-11-28T13:12:52.135Z,50.10
2018-11-28T13:15:21.455Z,49.80
2018-11-28T13:17:49.869Z,49.80
2018-11-28T13:20:19.154Z,49.90
2018-11-28T13:22:48.664Z,49.80
2018-11-28T13:25:19.151Z,49.80
2018-11-28T13:27:47.558Z,49.80
2018-11-28T13:30:17.823Z,49.70
2018-11-28T13:32:46.859Z,49.80
2018-11-28T13:35:17.414Z,49.60
2018-11-28T13:37:46.759Z,49.50
2018-11-28T13:40:16.306Z,49.40
2018-11-28T13:42:44.790Z,49.40
2018-11-28T13:45:16.437Z,49.50
2018-11-28T13:47:46.429Z,49.50
2018-11-28T13:50:14.837Z,49.60
2018-11-28T13:52:43.389Z,49.60
2018-11-28T13:57:43.754Z,49.80
2018-11-28T14:00:12.212Z,49.80
2018-11-28T14:02:40.755Z,49.80
2018-11-28T14:05:12.044Z,49.90
2018-11-28T14:07:40.603Z,50.20
2018-11-28T14:10:13.013Z,50.00
2018-11-28T14:12:41.994Z,49.80
2018-11-28T14:15:15.646Z,49.70
2018-11-28T14:17:53.802Z,49.40
2018-11-28T14:20:22.154Z,49.40
2018-11-28T14:22:50.626Z,49.10
2018-11-28T14:25:18.986Z,49.50
2018-11-28T14:27:47.390Z,49.40
2018-11-28T14:30:20.975Z,49.50
2018-11-28T14:32:50.369Z,49.60
2018-11-28T14:35:18.972Z,49.70
2018-11-28T14:37:47.572Z,49.10
2018-11-28T14:40:19.147Z,49.70
2018-11-28T14:42:51.651Z,50.20
2018-11-28T14:45:20.444Z,50.20
2018-11-28T14:47:50.047Z,50.10
2018-11-28T14:50:28.063Z,50.50
2018-11-28T14:52:58.646Z,50.10
2018-11-28T14:55:29.373Z,51.50
2018-11-28T14:57:57.807Z,52.10
2018-11-28T15:00:27.209Z,52.20
2018-11-28T15:03:00.736Z,52.20
2018-11-28T15:05:43.855Z,52.10
2018-11-28T15:08:14.814Z,52.40
2018-11-28T15:10:49.458Z,52.60
2018-11-28T15:13:17.787Z,53.10
2018-11-28T15:15:46.151Z,53.30
2018-11-28T15:18:15.367Z,53.60
2018-11-28T15:20:44.089Z,53.60
2018-11-28T15:23:12.515Z,53.80
2018-11-28T15:25:40.898Z,53.70
2018-11-28T15:28:09.330Z,54.10
2018-11-28T15:30:38.162Z,53.90
2018-11-28T15:33:06.680Z,53.70
2018-11-28T15:35:35.137Z,54.30
2018-11-28T15:38:04.515Z,53.70
2018-11-28T15:40:35.724Z,53.50
2018-11-28T15:43:04.813Z,53.50
2018-11-28T15:45:38.713Z,53.60
2018-11-28T15:48:09.587Z,53.60
2018-11-28T15:50:38.373Z,53.40
2018-11-28T15:53:07.212Z,53.10
2018-11-28T15:55:35.767Z,53.10
2018-11-28T15:58:04.134Z,52.80
2018-11-28T16:00:32.773Z,52.80
2018-11-28T16:03:01.179Z,52.80
2018-11-28T16:05:29.519Z,52.70
2018-11-28T16:07:57.978Z,52.70
2018-11-28T16:10:31.861Z,52.70
2018-11-28T16:13:00.258Z,52.70
2018-11-28T16:15:31.488Z,52.80
2018-11-28T16:17:59.956Z,52.70
2018-11-28T16:20:28.433Z,52.70
2018-11-28T16:23:04.085Z,52.60
2018-11-28T16:25:25.390Z,52.50
2018-11-28T16:27:53.751Z,52.50
2018-11-28T16:30:22.180Z,52.40
2018-11-28T16:32:50.534Z,52.40
2018-11-28T16:35:18.865Z,52.40
2018-11-28T16:37:47.193Z,52.50
2018-11-28T16:40:16.755Z,52.50
2018-11-28T16:42:45.126Z,52.40
2018-11-28T16:45:15.695Z,52.50
2018-11-28T16:47:44.091Z,52.50
2018-11-28T16:50:13.282Z,52.70
2018-11-28T16:52:41.679Z,52.70
2018-11-28T16:55:12.286Z,53.00
2018-11-28T16:57:41.390Z,52.80
2018-11-28T17:00:13.233Z,52.80
2018-11-28T17:02:41.691Z,52.90
2018-11-28T17:05:21.730Z,52.80
2018-11-28T17:07:50.638Z,52.90
2018-11-28T17:10:23.193Z,53.10
2018-11-28T17:12:52.294Z,53.10
2018-11-28T17:15:20.722Z,53.00
2018-11-28T17:17:49.180Z,53.20
2018-11-28T17:20:19.393Z,53.10
2018-11-28T17:22:48.282Z,53.20
2018-11-28T17:25:25.599Z,53.40
2018-11-28T17:27:53.955Z,53.40
2018-11-28T17:30:23.757Z,53.10
2018-11-28T17:32:52.323Z,53.10
2018-11-28T17:35:21.070Z,53.30
2018-11-28T17:37:49.587Z,53.40
2018-11-28T17:40:19.113Z,53.50
2018-11-28T17:42:48.721Z,53.40
2018-11-28T17:45:18.315Z,53.60
2018-11-28T17:47:46.748Z,53.70
2018-11-28T17:50:17.339Z,53.60
2018-11-28T17:53:19.433Z,53.50
2018-11-28T17:55:50.472Z,53.50
2018-11-28T17:58:18.833Z,53.60
2018-11-28T18:00:47.149Z,53.60
2018-11-28T18:03:15.562Z,53.50
2018-11-28T18:05:44.007Z,53.50
2018-11-28T18:08:12.333Z,53.60
2018-11-28T18:10:40.611Z,53.60
2018-11-28T18:13:10.902Z,53.10
2018-11-28T18:15:41.358Z,52.90
2018-11-28T18:18:10.960Z,52.90
2018-11-28T18:20:39.435Z,52.80
2018-11-28T18:23:09.576Z,52.80
2018-11-28T18:25:38.834Z,52.80
2018-11-28T18:28:07.984Z,52.40
2018-11-28T18:30:37.130Z,52.60
2018-11-28T18:33:06.540Z,52.70
2018-11-28T18:35:35.079Z,52.40
2018-11-28T18:38:03.856Z,51.50
2018-11-28T18:40:32.270Z,51.50
2018-11-28T18:43:00.699Z,51.20
2018-11-28T18:45:31.362Z,51.00
2018-11-28T18:48:00.250Z,50.90
2018-11-28T18:50:28.702Z,51.10
2018-11-28T18:52:57.113Z,51.20
2018-11-28T18:55:25.469Z,51.00
2018-11-28T18:57:55.790Z,51.70
2018-11-28T19:00:25.950Z,51.00
2018-11-28T19:02:55.067Z,51.70
2018-11-28T19:05:23.474Z,52.00
2018-11-28T19:07:52.075Z,52.10
2018-11-28T19:10:26.362Z,52.20
2018-11-28T19:12:50.347Z,53.00
2018-11-28T19:15:20.990Z,52.70
2018-11-28T19:17:49.885Z,52.50
2018-11-28T19:20:20.894Z,52.80
2018-11-28T19:22:49.916Z,52.90
2018-11-28T19:25:20.499Z,53.10
2018-11-28T19:27:48.887Z,53.30
2018-11-28T19:30:21.749Z,53.40
2018-11-28T19:32:50.139Z,53.80
2018-11-28T19:35:18.535Z,53.60
2018-11-28T19:37:46.912Z,53.70
2018-11-28T19:40:27.766Z,54.00
2018-11-28T19:42:56.439Z,53.60
2018-11-28T19:45:24.979Z,53.60
2018-11-28T19:47:54.228Z,53.70
2018-11-28T19:50:27.913Z,53.80
2018-11-28T19:52:56.303Z,53.70
2018-11-28T19:55:25.534Z,53.90
2018-11-28T19:57:53.962Z,53.40
2018-11-28T20:00:22.321Z,53.40
2018-11-28T20:02:50.699Z,53.00
2018-11-28T20:05:19.112Z,53.20
2018-11-28T20:07:49.420Z,53.10
2018-11-28T20:10:20.719Z,53.20
2018-11-28T20:12:49.225Z,53.30
2018-11-28T20:15:29.991Z,53.20
2018-11-28T20:17:58.771Z,53.50
2018-11-28T20:20:27.203Z,53.20
2018-11-28T20:22:55.715Z,53.40
2018-11-28T20:25:24.906Z,53.10
2018-11-28T20:27:54.851Z,53.70
2018-11-28T20:30:30.927Z,53.80
2018-11-28T20:32:59.336Z,54.30
2018-11-28T20:35:27.806Z,53.80
2018-11-28T20:37:56.693Z,54.10
2018-11-28T20:40:25.060Z,54.30
2018-11-28T20:42:54.348Z,54.70
2018-11-28T20:45:22.728Z,55.30
2018-11-28T20:47:51.039Z,55.20
2018-11-28T20:50:22.348Z,55.40
2018-11-28T20:52:55.033Z,55.60
2018-11-28T20:55:21.614Z,55.80
2018-11-28T20:57:49.935Z,56.10
2018-11-28T21:00:23.615Z,56.50
2018-11-28T21:02:52.067Z,56.70
2018-11-28T21:05:20.620Z,57.20
2018-11-28T21:07:49.321Z,57.60
2018-11-28T21:10:23.428Z,57.90
2018-11-28T21:12:52.828Z,57.90
2018-11-28T21:15:21.193Z,58.30
2018-11-28T21:17:49.597Z,58.40
2018-11-28T21:20:19.188Z,58.50
2018-11-28T21:22:49.244Z,58.60
2018-11-28T21:25:17.632Z,58.90
2018-11-28T21:27:46.102Z,58.80
2018-11-28T21:30:18.906Z,59.10
2018-11-28T21:32:47.749Z,59.30
2018-11-28T21:35:22.517Z,59.00
2018-11-28T21:37:50.818Z,59.10
2018-11-28T21:40:19.362Z,59.10
2018-11-28T21:42:47.750Z,59.30
2018-11-28T21:45:17.123Z,60.00
2018-11-28T21:47:45.454Z,61.20
2018-11-28T21:50:16.575Z,60.20
2018-11-28T21:52:44.953Z,61.00
2018-11-28T21:55:17.678Z,61.00
2018-11-28T21:57:46.083Z,61.20
2018-11-28T22:00:16.555Z,61.70
2018-11-28T22:02:44.877Z,61.60
2018-11-28T22:05:14.347Z,62.20
2018-11-28T22:07:42.791Z,63.30
2018-11-28T22:10:15.990Z,62.60
2018-11-28T22:12:44.457Z,62.80
2018-11-28T22:15:13.844Z,63.10
2018-11-28T22:17:44.358Z,62.80
2018-11-28T22:20:13.487Z,62.40
2018-11-28T22:22:41.804Z,62.70
2018-11-28T22:25:16.118Z,62.80
2018-11-28T22:27:44.510Z,62.50
2018-11-28T22:30:14.003Z,63.00
2018-11-28T22:32:42.437Z,62.50
2018-11-28T22:35:10.766Z,62.50
2018-11-28T22:37:39.087Z,63.10
2018-11-28T22:40:11.672Z,63.00
2018-11-28T22:42:40.787Z,63.10
2018-11-28T22:45:14.206Z,62.40
2018-11-28T22:47:42.523Z,62.10
2018-11-28T22:50:11.794Z,62.10
2018-11-28T22:52:40.113Z,61.90
2018-11-28T22:55:09.779Z,62.00
2018-11-28T22:57:38.099Z,62.50
2018-11-28T23:00:10.866Z,62.10
2018-11-28T23:02:51.595Z,62.40
2018-11-28T23:05:20.433Z,61.80
2018-11-28T23:07:48.849Z,61.80
2018-11-28T23:10:17.325Z,61.80
2018-11-28T23:12:45.639Z,61.70
2018-11-28T23:15:13.984Z,61.60
2018-11-28T23:17:42.242Z,61.60
2018-11-28T23:20:10.781Z,61.70
2018-11-28T23:22:39.041Z,62.40
2018-11-28T23:25:10.750Z,62.50
2018-11-28T23:27:39.315Z,63.30
2018-11-28T23:30:15.644Z,63.50
2018-11-28T23:32:44.006Z,63.90
2018-11-28T23:35:12.397Z,64.10
2018-11-28T23:37:41.633Z,63.80
2018-11-28T23:40:13.846Z,64.10
2018-11-28T23:42:42.122Z,63.40
2018-11-28T23:45:11.681Z,64.00
2018-11-28T23:47:39.954Z,63.50
2018-11-28T23:50:11.555Z,62.60
2018-11-28T23:52:39.839Z,63.20
2018-11-28T23:55:13.595Z,62.50
2018-11-28T23:57:41.852Z,62.30
